Time;durP1;ratioP1;P1;durP2;ratioP2;P2;SDS_P1;SDS_P2;PMS_P1;PMS_P2;Temp;Humidity;BMP_temperature;BMP_pressure;BME280_temperature;BME280_humidity;BME280_pressure;Samples;Min_cycle;Max_cycle;Signal;HPM_P1;HPM_P2
2021/09/05 00:01:53;;;;;;;;;11.00;9.50;;;;;17.95;50.28;99282.53;6150516;28;96421;-61
2021/09/05 00:04:57;;;;;;;;;10.60;9.60;;;;;17.86;50.37;99284.09;6160194;28;97624;-61
2021/09/05 00:08:00;;;;;;;;;10.67;9.00;;;;;17.92;50.08;99271.34;6144910;28;99515;-63
2021/09/05 00:11:03;;;;;;;;;11.50;8.50;;;;;17.89;49.97;99266.38;6163735;28;96516;-61
2021/09/05 00:14:07;;;;;;;;;10.00;8.60;;;;;17.84;50.17;99277.28;6162861;28;98910;-63
2021/09/05 00:17:12;;;;;;;;;10.40;9.40;;;;;17.64;50.58;99281.44;6145185;28;96643;-62
2021/09/05 00:20:15;;;;;;;;;9.80;9.00;;;;;17.64;50.59;99272.44;6163747;28;96581;-63
2021/09/05 00:23:19;;;;;;;;;10.20;9.00;;;;;17.60;50.50;99282.19;6163768;28;97491;-63
2021/09/05 00:26:37;;;;;;;;;10.00;10.00;;;;;17.59;50.68;99280.56;6163654;28;97528;-63
2021/09/05 00:29:41;;;;;;;;;10.75;9.75;;;;;17.52;50.99;99283.47;6163661;28;96846;-61
2021/09/05 00:32:45;;;;;;;;;8.25;7.25;;;;;17.55;50.82;99282.13;6163443;28;96511;-63
2021/09/05 00:35:49;;;;;;;;;11.00;9.00;;;;;17.52;50.74;99277.19;6146060;28;96475;-62
2021/09/05 00:38:53;;;;;;;;;11.00;11.00;;;;;17.60;50.62;99276.75;6145271;28;97410;-61
2021/09/05 00:41:56;;;;;;;;;10.40;10.00;;;;;17.55;50.79;99279.38;6163217;28;96573;-63
2021/09/05 00:45:00;;;;;;;;;11.00;9.40;;;;;17.35;51.04;99250.03;6163512;28;97474;-63
2021/09/05 00:48:06;;;;;;;;;10.00;10.00;;;;;17.49;51.06;99285.88;6128708;28;99720;-63
2021/09/05 00:51:09;;;;;;;;;9.60;8.00;;;;;17.39;51.25;99292.06;6162615;28;97362;-63
2021/09/05 00:54:14;;;;;;;;;10.60;10.00;;;;;17.35;51.59;99281.94;6144314;28;96657;-63
2021/09/05 00:57:18;;;;;;;;;11.00;9.00;;;;;17.33;51.62;99285.72;6162700;28;97487;-63
2021/09/05 01:00:25;;;;;;;;;8.50;8.50;;;;;17.32;52.25;99285.97;6161828;28;96653;-63
2021/09/05 01:03:31;;;;;;;;;10.00;9.60;;;;;17.30;51.61;99288.94;6163311;28;96337;-61
2021/09/05 01:06:45;;;;;;;;;10.00;9.00;;;;;17.23;51.92;99293.78;6146409;28;96652;-63
2021/09/05 01:09:52;;;;;;;;;10.20;9.00;;;;;17.21;51.84;99295.94;6161671;28;96448;-63
2021/09/05 01:12:58;;;;;;;;;10.80;9.00;;;;;17.16;51.62;99297.75;6162993;28;96616;-63
2021/09/05 01:16:02;;;;;;;;;10.60;10.00;;;;;17.18;51.76;99292.91;6161554;28;96939;-63
2021/09/05 01:19:19;;;;;;;;;11.40;10.40;;;;;17.15;51.88;99305.09;6145598;28;97342;-63
2021/09/05 01:22:48;;;;;;;;;8.00;7.00;;;;;16.96;51.87;99290.16;6146264;28;97436;-61
2021/09/05 01:26:05;;;;;;;;;9.20;8.20;;;;;17.02;52.15;99302.78;6162386;28;96880;-63
2021/09/05 01:29:36;;;;;;;;;11.40;10.00;;;;;17.00;52.48;99301.41;6159565;28;97353;-61
2021/09/05 01:33:06;;;;;;;;;10.00;9.00;;;;;16.99;52.45;99311.47;6131413;28;96634;-63
2021/09/05 01:36:28;;;;;;;;;8.75;8.00;;;;;16.92;52.17;99308.09;6160847;28;96521;-63
2021/09/05 01:39:50;;;;;;;;;9.25;8.25;;;;;16.85;52.16;99315.66;6161678;28;96667;-63
2021/09/05 01:43:18;;;;;;;;;10.00;9.00;;;;;16.81;52.40;99309.06;6152834;28;96781;-63
2021/09/05 01:47:01;;;;;;;;;10.00;9.00;;;;;16.80;52.26;99308.22;6143039;28;99473;-62
2021/09/05 01:50:24;;;;;;;;;10.00;9.00;;;;;16.85;52.04;99315.66;6165443;28;96939;-64
2021/09/05 01:53:57;;;;;;;;;9.00;8.60;;;;;16.72;52.11;99322.25;6148258;28;99581;-62
2021/09/05 01:57:33;;;;;;;;;9.00;8.00;;;;;16.74;52.10;99316.56;6166254;28;97653;-64
2021/09/05 02:01:12;;;;;;;;;13.00;11.00;;;;;16.68;52.12;99326.56;6115809;28;97584;-64
2021/09/05 02:04:40;;;;;;;;;11.20;9.20;;;;;16.61;52.28;99325.94;6155363;28;97608;-64
2021/09/05 02:08:09;;;;;;;;;10.00;9.00;;;;;16.57;52.36;99326.63;6138489;28;97019;-64
2021/09/05 02:11:27;;;;;;;;;10.80;10.00;;;;;16.50;52.35;99329.53;6147989;28;96700;-64
2021/09/05 02:15:06;;;;;;;;;9.00;8.00;;;;;16.46;52.51;99334.66;6148002;28;97225;-63
2021/09/05 02:18:30;;;;;;;;;9.00;9.00;;;;;16.40;52.38;99329.38;6161550;28;96685;-64
2021/09/05 02:22:00;;;;;;;;;11.00;10.00;;;;;16.36;52.34;99336.41;6165473;28;97518;-64
2021/09/05 02:25:22;;;;;;;;;11.00;9.00;;;;;16.30;52.47;99335.50;6171259;28;97450;-63
2021/09/05 02:28:26;;;;;;;;;10.60;10.40;;;;;16.21;52.47;99342.41;6165513;28;96681;-64
2021/09/05 02:31:58;;;;;;;;;11.00;9.60;;;;;16.18;52.51;99344.78;6164079;28;97550;-64
2021/09/05 02:35:28;;;;;;;;;7.60;7.00;;;;;16.05;52.78;99345.94;6163635;28;97266;-63
2021/09/05 02:38:35;;;;;;;;;10.00;8.60;;;;;16.03;52.78;99339.91;6165468;28;97357;-65
2021/09/05 02:42:17;;;;;;;;;11.00;10.00;;;;;15.92;53.03;99338.94;6122504;28;98505;-64
2021/09/05 02:45:41;;;;;;;;;8.20;7.20;;;;;15.91;53.20;99350.06;6079351;28;96707;-64
2021/09/05 02:49:03;;;;;;;;;9.60;9.00;;;;;15.95;53.04;99343.88;6163887;28;96473;-63
2021/09/05 02:52:25;;;;;;;;;10.40;9.60;;;;;15.92;53.15;99347.09;6165467;28;97399;-64
2021/09/05 02:55:49;;;;;;;;;10.00;9.80;;;;;15.92;53.28;99351.72;6166678;28;97077;-63
2021/09/05 02:59:24;;;;;;;;;10.00;10.00;;;;;15.95;53.28;99343.03;6113298;28;96661;-64
2021/09/05 03:02:49;;;;;;;;;9.00;8.00;;;;;15.94;52.79;99347.66;6106557;28;96642;-65
2021/09/05 03:06:18;;;;;;;;;11.80;9.20;;;;;15.94;52.89;99344.94;6112224;28;96725;-64
2021/09/05 03:09:48;;;;;;;;;10.60;9.60;;;;;15.90;52.97;99343.78;6112404;28;97454;-65
2021/09/05 03:13:24;;;;;;;;;10.00;9.67;;;;;15.87;53.24;99338.03;6112380;28;97718;-64
2021/09/05 03:16:47;;;;;;;;;12.80;11.00;;;;;15.81;53.36;99339.00;6114917;28;97487;-64
2021/09/05 03:20:23;;;;;;;;;11.00;11.00;;;;;15.85;53.21;99338.25;6091005;28;96900;-62
2021/09/05 03:23:45;;;;;;;;;11.00;9.00;;;;;15.84;53.05;99336.59;6121794;28;98062;-61
2021/09/05 03:27:11;;;;;;;;;10.60;10.00;;;;;15.83;53.16;99340.38;6111324;28;97556;-63
2021/09/05 03:30:45;;;;;;;;;11.20;10.00;;;;;15.85;53.17;99342.88;6075575;28;96704;-62
2021/09/05 03:34:07;;;;;;;;;8.80;8.80;;;;;15.82;53.07;99359.69;6127109;28;96870;-63
2021/09/05 03:37:48;;;;;;;;;12.00;11.00;;;;;15.83;53.10;99358.63;6151410;28;96540;-63
2021/09/05 03:41:11;;;;;;;;;10.00;9.00;;;;;15.83;53.09;99356.69;6163339;28;97419;-63
2021/09/05 03:44:35;;;;;;;;;8.40;8.40;;;;;15.90;53.03;99362.00;6149889;28;97665;-63
2021/09/05 03:48:12;;;;;;;;;9.00;9.00;;;;;15.88;52.91;99362.22;6163679;28;98041;-63
2021/09/05 03:51:41;;;;;;;;;10.00;10.00;;;;;15.85;52.97;99356.47;6159782;28;97435;-61
2021/09/05 03:54:51;;;;;;;;;12.00;10.40;;;;;15.84;53.10;99354.81;6133355;28;97468;-62
2021/09/05 03:57:55;;;;;;;;;10.60;10.00;;;;;15.84;53.36;99362.97;6130296;28;98106;-61
2021/09/05 04:01:01;;;;;;;;;12.00;10.60;;;;;15.88;52.85;99364.94;6147516;28;96831;-63
2021/09/05 04:04:08;;;;;;;;;11.40;10.60;;;;;15.89;52.86;99374.75;6146427;28;96985;-63
2021/09/05 04:07:14;;;;;;;;;9.80;9.00;;;;;15.74;52.97;99370.94;6163150;28;97403;-63
2021/09/05 04:10:19;;;;;;;;;10.50;10.00;;;;;15.66;53.40;99377.59;6164113;28;97055;-62
2021/09/05 04:13:22;;;;;;;;;10.00;9.00;;;;;15.56;53.67;99378.22;6163634;28;96442;-61
2021/09/05 04:16:25;;;;;;;;;13.00;11.00;;;;;15.57;53.99;99384.47;6163765;28;96813;-61
2021/09/05 04:19:30;;;;;;;;;12.00;10.00;;;;;15.62;53.55;99386.47;6164733;28;96589;-61
2021/09/05 04:22:34;;;;;;;;;13.00;10.50;;;;;15.64;53.54;99393.31;6162898;28;97019;-64
2021/09/05 04:25:37;;;;;;;;;9.40;8.00;;;;;15.67;53.14;99395.56;6163299;28;96788;-62
2021/09/05 04:28:40;;;;;;;;;9.40;9.00;;;;;15.58;53.52;99386.97;6163217;28;96404;-63
2021/09/05 04:31:44;;;;;;;;;11.00;10.00;;;;;15.62;53.41;99397.34;6163064;28;96876;-63
2021/09/05 04:34:49;;;;;;;;;11.40;11.40;;;;;15.71;53.40;99404.03;6161179;28;96613;-63
2021/09/05 04:37:52;;;;;;;;;9.00;9.00;;;;;15.78;53.04;99405.56;6147049;28;96651;-62
2021/09/05 04:40:56;;;;;;;;;12.00;10.00;;;;;15.85;53.07;99410.84;6160446;28;97553;-62
2021/09/05 04:43:59;;;;;;;;;10.00;9.00;;;;;15.90;53.20;99413.66;6163792;28;97537;-61
2021/09/05 04:47:03;;;;;;;;;10.00;9.25;;;;;15.91;52.99;99412.59;6163311;28;96415;-62
2021/09/05 04:50:08;;;;;;;;;10.00;9.00;;;;;15.97;52.81;99414.34;6162660;28;97463;-63
2021/09/05 04:53:11;;;;;;;;;11.00;10.00;;;;;16.07;52.54;99422.69;6142903;28;97410;-63
2021/09/05 04:56:15;;;;;;;;;11.00;9.60;;;;;16.09;52.44;99427.88;6143874;28;96871;-63
2021/09/05 04:59:18;;;;;;;;;11.00;10.00;;;;;16.12;52.52;99422.78;6162349;28;97139;-61
2021/09/05 05:02:21;;;;;;;;;9.80;9.40;;;;;16.17;52.54;99424.78;6160418;28;96530;-63
2021/09/05 05:05:27;;;;;;;;;13.00;11.40;;;;;16.31;52.55;99431.56;6160788;28;97451;-62
2021/09/05 05:08:30;;;;;;;;;9.00;9.00;;;;;16.41;51.90;99426.28;6161899;28;96528;-61
2021/09/05 05:11:33;;;;;;;;;12.60;11.40;;;;;16.49;51.35;99436.75;6162957;28;97715;-61
2021/09/05 05:14:37;;;;;;;;;11.00;10.00;;;;;16.54;51.87;99449.63;6159691;28;96970;-62
2021/09/05 05:17:40;;;;;;;;;14.00;12.00;;;;;16.52;51.22;99446.34;6161818;28;96917;-63
2021/09/05 05:20:45;;;;;;;;;10.00;9.00;;;;;16.57;51.12;99449.13;6161312;28;97519;-61
2021/09/05 05:23:48;;;;;;;;;10.00;10.00;;;;;16.61;51.27;99456.59;6162461;28;96877;-63
2021/09/05 05:26:51;;;;;;;;;11.00;10.00;;;;;16.69;51.04;99458.06;6166084;28;97452;-63
2021/09/05 05:29:54;;;;;;;;;9.00;9.00;;;;;16.80;51.06;99458.00;6166281;28;96927;-63
2021/09/05 05:32:58;;;;;;;;;12.00;11.00;;;;;16.95;50.69;99465.59;6165269;28;97260;-63
2021/09/05 05:36:03;;;;;;;;;12.40;10.00;;;;;17.12;50.23;99471.00;6148308;28;96551;-62
2021/09/05 05:39:06;;;;;;;;;13.40;11.60;;;;;17.30;49.84;99476.16;6166552;28;97452;-63
2021/09/05 05:42:10;;;;;;;;;11.00;9.60;;;;;17.53;49.13;99477.84;6165015;28;97265;-63
2021/09/05 05:45:13;;;;;;;;;9.00;9.00;;;;;17.68;48.48;99473.47;6165703;28;96940;-62
2021/09/05 05:48:17;;;;;;;;;11.20;10.20;;;;;17.70;47.65;99487.66;6165982;28;97497;-63
2021/09/05 05:51:21;;;;;;;;;12.60;11.00;;;;;17.87;47.81;99482.16;6154636;28;96545;-63
2021/09/05 05:54:25;;;;;;;;;10.25;9.00;;;;;18.06;47.42;99494.38;6165640;28;96933;-61
2021/09/05 05:57:28;;;;;;;;;11.00;9.00;;;;;18.24;46.62;99485.00;6164722;28;96790;-63
2021/09/05 06:00:31;;;;;;;;;10.00;9.60;;;;;18.47;46.51;99487.41;6164968;28;97423;-63
2021/09/05 06:03:36;;;;;;;;;10.00;9.00;;;;;18.55;46.13;99472.50;6146900;28;97521;-63
2021/09/05 06:06:42;;;;;;;;;12.00;10.00;;;;;19.00;45.57;99502.97;6158779;28;96787;-62
2021/09/05 06:09:45;;;;;;;;;10.00;9.00;;;;;19.16;44.50;99505.78;6165869;28;96847;-62
2021/09/05 06:12:48;;;;;;;;;9.00;9.00;;;;;19.41;45.22;99500.47;6166416;28;96568;-63
2021/09/05 06:15:52;;;;;;;;;9.00;8.00;;;;;19.65;43.58;99506.38;6145729;28;97858;-62
2021/09/05 06:18:56;;;;;;;;;8.60;8.00;;;;;19.94;43.33;99515.84;6141194;28;97162;-62
2021/09/05 06:22:01;;;;;;;;;10.20;9.20;;;;;20.07;42.89;99501.66;6141600;28;96632;-62
2021/09/05 06:25:05;;;;;;;;;11.40;10.00;;;;;20.22;43.47;99506.38;6139340;28;96692;-63
2021/09/05 06:28:10;;;;;;;;;8.50;8.00;;;;;20.35;43.00;99516.00;6119804;28;98134;-65
2021/09/05 06:31:13;;;;;;;;;9.40;8.40;;;;;20.25;42.12;99500.34;6122405;28;97093;-62
2021/09/05 06:34:16;;;;;;;;;9.80;8.20;;;;;20.41;42.57;99518.50;6140030;28;97395;-61
2021/09/05 06:37:21;;;;;;;;;9.00;8.00;;;;;20.57;41.62;99519.34;6139631;28;97208;-61
2021/09/05 06:40:24;;;;;;;;;10.00;8.20;;;;;20.71;41.50;99521.28;6122477;28;99655;-64
2021/09/05 06:43:28;;;;;;;;;8.00;7.00;;;;;20.92;41.74;99527.59;6122961;28;97536;-63
2021/09/05 06:46:31;;;;;;;;;11.00;9.00;;;;;21.07;41.16;99532.25;6109958;28;96382;-62
2021/09/05 06:49:35;;;;;;;;;12.00;10.00;;;;;21.30;41.95;99533.66;6140875;28;97000;-63
2021/09/05 06:52:39;;;;;;;;;6.00;6.00;;;;;21.51;41.60;99527.84;6140035;28;97129;-61
2021/09/05 06:55:43;;;;;;;;;9.00;8.00;;;;;21.76;40.75;99526.97;6123035;28;98623;-63
2021/09/05 06:58:47;;;;;;;;;8.00;8.00;;;;;21.85;40.57;99539.00;6138072;28;96483;-63
2021/09/05 07:01:51;;;;;;;;;8.60;8.40;;;;;22.02;39.64;99533.22;6130975;28;97316;-64
2021/09/05 07:04:55;;;;;;;;;7.80;7.80;;;;;22.29;39.76;99546.53;6139513;28;97408;-64
2021/09/05 07:08:17;;;;;;;;;11.00;9.00;;;;;22.45;38.18;99542.63;6122931;28;96653;-64
2021/09/05 07:11:20;;;;;;;;;7.80;7.00;;;;;22.30;38.48;99554.50;6110571;28;97526;-64
2021/09/05 07:14:24;;;;;;;;;10.00;8.00;;;;;22.62;39.02;99553.25;6145307;28;97264;-63
2021/09/05 07:17:27;;;;;;;;;9.40;6.60;;;;;22.96;39.01;99567.06;6148794;28;97785;-62
2021/09/05 07:20:31;;;;;;;;;8.40;7.40;;;;;23.33;38.62;99565.38;6165401;28;97328;-61
2021/09/05 07:23:36;;;;;;;;;7.00;6.80;;;;;23.67;37.89;99575.56;6146187;28;98613;-63
2021/09/05 07:26:39;;;;;;;;;7.00;7.00;;;;;23.74;36.70;99571.34;6162583;28;97775;-63
2021/09/05 07:29:43;;;;;;;;;7.20;6.20;;;;;23.62;35.71;99573.66;6163250;28;96745;-63
2021/09/05 07:32:46;;;;;;;;;8.50;7.50;;;;;23.78;37.21;99588.09;6163183;28;97499;-63
2021/09/05 07:35:49;;;;;;;;;7.60;7.00;;;;;23.93;36.24;99576.09;6144506;28;97607;-63
2021/09/05 07:38:54;;;;;;;;;7.00;7.00;;;;;24.24;35.84;99582.91;6154054;28;96653;-62
2021/09/05 07:41:57;;;;;;;;;9.00;7.00;;;;;24.45;35.73;99589.81;6142313;28;98586;-63
2021/09/05 07:45:01;;;;;;;;;7.33;6.33;;;;;24.63;35.58;99590.94;6126188;28;96715;-64
2021/09/05 07:48:05;;;;;;;;;7.00;6.00;;;;;24.99;35.52;99585.78;6164024;28;97072;-61
2021/09/05 07:51:08;;;;;;;;;7.50;7.00;;;;;25.23;34.79;99594.75;6164202;28;96537;-62
2021/09/05 07:54:13;;;;;;;;;6.00;6.00;;;;;25.46;34.55;99601.31;6145947;28;97539;-63
2021/09/05 07:57:17;;;;;;;;;7.60;6.00;;;;;25.72;32.19;99609.97;6163895;28;98032;-62
2021/09/05 08:00:20;;;;;;;;;5.60;5.00;;;;;25.63;32.57;99601.56;6144932;28;97692;-62
2021/09/05 08:03:24;;;;;;;;;7.40;7.00;;;;;25.56;33.32;99606.66;6145385;28;96658;-62
2021/09/05 08:06:28;;;;;;;;;7.40;6.00;;;;;25.78;32.80;99615.09;6163190;28;96817;-62
2021/09/05 08:09:32;;;;;;;;;5.60;5.00;;;;;25.73;32.57;99608.84;6163990;28;97408;-61
2021/09/05 08:12:35;;;;;;;;;5.00;4.50;;;;;25.86;32.14;99619.09;6145502;28;97729;-62
2021/09/05 08:15:39;;;;;;;;;5.75;5.75;;;;;26.06;31.01;99609.59;6162457;28;97435;-62
2021/09/05 08:18:42;;;;;;;;;3.20;3.20;;;;;26.16;30.88;99626.81;6163871;28;97319;-63
2021/09/05 08:21:45;;;;;;;;;5.40;4.80;;;;;25.71;29.74;99622.13;6152368;28;97339;-61
2021/09/05 08:24:50;;;;;;;;;6.40;6.00;;;;;25.39;31.34;99615.47;6158565;28;96704;-61
2021/09/05 08:27:53;;;;;;;;;4.00;4.00;;;;;25.54;31.36;99624.63;6162983;28;97499;-62
2021/09/05 08:30:57;;;;;;;;;5.00;4.67;;;;;25.38;30.95;99624.06;6133270;28;97440;-62
2021/09/05 08:34:00;;;;;;;;;4.00;4.00;;;;;25.48;30.34;99623.88;6128126;28;98242;-61
2021/09/05 08:37:04;;;;;;;;;4.00;4.00;;;;;25.73;30.28;99617.97;6163678;28;97482;-61
2021/09/05 08:40:10;;;;;;;;;4.00;3.80;;;;;25.93;29.50;99619.53;6163290;28;96861;-63
2021/09/05 08:43:14;;;;;;;;;5.00;3.75;;;;;26.24;29.25;99628.09;6144746;28;97806;-61
2021/09/05 08:46:18;;;;;;;;;3.00;3.00;;;;;26.33;28.56;99626.25;6147058;28;98397;-63
2021/09/05 08:49:27;;;;;;;;;3.00;3.00;;;;;26.31;27.82;99625.72;6153239;28;96708;-63
2021/09/05 08:52:30;;;;;;;;;3.00;3.00;;;;;26.36;26.09;99625.63;6139824;28;97719;-63
2021/09/05 08:55:35;;;;;;;;;3.00;3.00;;;;;26.75;27.21;99627.84;6162426;28;97440;-65
2021/09/05 08:58:38;;;;;;;;;3.00;2.00;;;;;27.07;26.47;99629.66;6161902;28;97419;-65
2021/09/05 09:01:52;;;;;;;;;3.00;3.00;;;;;27.08;25.54;99640.38;6145117;28;98636;-64
2021/09/05 09:04:56;;;;;;;;;3.00;2.50;;;;;27.38;25.19;99627.75;6156112;28;96436;-66
2021/09/05 09:08:01;;;;;;;;;2.00;2.00;;;;;27.43;23.94;99624.88;6145781;28;99489;-63
2021/09/05 09:11:07;;;;;;;;;2.00;2.00;;;;;27.46;24.55;99635.34;6163168;28;96473;-65
2021/09/05 09:14:10;;;;;;;;;3.00;2.40;;;;;27.71;24.03;99633.88;6162957;28;97472;-64
2021/09/05 09:17:15;;;;;;;;;2.00;2.00;;;;;27.87;24.24;99628.75;6163184;28;96611;-64
2021/09/05 09:20:37;;;;;;;;;2.67;2.00;;;;;28.33;24.34;99642.22;6143981;28;97323;-64
2021/09/05 09:23:41;;;;;;;;;2.00;2.00;;;;;28.59;23.91;99645.88;6161454;28;96934;-65
2021/09/05 09:26:57;;;;;;;;;3.00;3.00;;;;;28.00;22.87;99636.19;6144525;28;98699;-65
2021/09/05 09:30:01;;;;;;;;;1.60;1.60;;;;;28.15;22.67;99640.53;6142541;28;97944;-64
2021/09/05 09:33:04;;;;;;;;;3.00;3.00;;;;;28.21;22.93;99642.81;6162014;28;97489;-65
2021/09/05 09:36:11;;;;;;;;;4.00;3.00;;;;;28.20;23.82;99648.69;6144178;28;96933;-66
2021/09/05 09:39:16;;;;;;;;;3.00;3.00;;;;;28.52;22.68;99648.31;6163034;28;97820;-63
2021/09/05 09:42:37;;;;;;;;;2.00;2.00;;;;;28.87;22.77;99637.34;6161973;28;97485;-63
2021/09/05 09:45:42;;;;;;;;;1.50;1.50;;;;;28.79;22.01;99650.03;6144869;28;97552;-64
2021/09/05 09:48:47;;;;;;;;;2.00;2.00;;;;;28.90;21.48;99640.28;6162432;28;97318;-65
2021/09/05 09:52:00;;;;;;;;;3.40;3.00;;;;;29.12;22.38;99634.59;6162347;28;96623;-65
2021/09/05 09:55:04;;;;;;;;;2.00;2.00;;;;;29.38;21.24;99642.09;6143724;28;97761;-64
2021/09/05 09:58:10;;;;;;;;;2.00;2.00;;;;;29.50;22.20;99640.31;6153857;28;96997;-66
2021/09/05 10:01:17;;;;;;;;;2.00;2.00;;;;;29.34;22.02;99635.59;6162330;28;96756;-67
2021/09/05 10:04:22;;;;;;;;;3.00;2.00;;;;;29.81;22.96;99637.31;6162654;28;96663;-66
2021/09/05 10:07:25;;;;;;;;;2.00;2.00;;;;;30.20;22.13;99641.81;6143529;28;98716;-64
2021/09/05 10:10:29;;;;;;;;;3.00;2.00;;;;;30.42;20.50;99632.38;6146597;28;97555;-66
2021/09/05 10:13:37;;;;;;;;;3.00;2.40;;;;;30.89;21.28;99645.03;6165909;28;97444;-64
2021/09/05 10:16:43;;;;;;;;;2.00;1.25;;;;;31.09;20.39;99637.88;6166348;28;97665;-68
2021/09/05 10:19:47;;;;;;;;;2.00;1.00;;;;;31.31;19.64;99634.78;6131732;28;96668;-67
2021/09/05 10:22:51;;;;;;;;;1.40;1.40;;;;;30.89;18.67;99647.00;6165343;28;97440;-63
2021/09/05 10:25:55;;;;;;;;;1.00;1.00;;;;;30.78;19.31;99634.66;6165116;28;98037;-64
2021/09/05 10:29:12;;;;;;;;;2.00;2.00;;;;;30.61;21.45;99635.56;6165438;28;96627;-66
2021/09/05 10:32:20;;;;;;;;;2.40;2.00;;;;;30.70;20.65;99630.75;6137154;28;97439;-66
2021/09/05 10:35:45;;;;;;;;;1.00;1.00;;;;;30.86;21.09;99631.81;6165969;28;96743;-64
2021/09/05 10:38:49;;;;;;;;;2.00;2.00;;;;;31.21;19.99;99626.00;6165975;28;96503;-66
2021/09/05 10:41:53;;;;;;;;;2.00;2.00;;;;;31.20;18.90;99629.94;6165500;28;96697;-64
2021/09/05 10:45:04;;;;;;;;;3.00;2.00;;;;;31.25;19.60;99636.13;6147645;28;97728;-66
2021/09/05 10:48:30;;;;;;;;;2.00;2.00;;;;;31.02;20.04;99634.84;6164366;28;97464;-66
2021/09/05 10:51:37;;;;;;;;;2.00;2.00;;;;;30.91;19.27;99633.56;6152521;28;97191;-66
2021/09/05 10:54:47;;;;;;;;;2.40;2.00;;;;;30.46;20.36;99627.78;6147010;28;99587;-66
2021/09/05 10:58:01;;;;;;;;;3.00;2.40;;;;;30.77;21.34;99630.25;6148252;28;96847;-65
2021/09/05 11:01:19;;;;;;;;;2.00;2.00;;;;;30.76;19.96;99625.81;6167263;28;96825;-67
2021/09/05 11:04:25;;;;;;;;;2.00;2.00;;;;;30.42;20.21;99629.59;6146735;28;98266;-67
2021/09/05 11:07:33;;;;;;;;;3.00;3.00;;;;;30.55;21.43;99632.16;6165053;28;97253;-63
2021/09/05 11:10:53;;;;;;;;;2.00;2.00;;;;;31.14;20.04;99631.28;6146996;28;97755;-63
2021/09/05 11:13:57;;;;;;;;;3.00;3.00;;;;;31.63;20.16;99638.75;6158730;28;96914;-63
2021/09/05 11:17:10;;;;;;;;;2.00;2.00;;;;;31.53;18.69;99629.97;6122913;28;96788;-63
2021/09/05 11:20:14;;;;;;;;;3.25;3.00;;;;;30.92;19.96;99633.25;6115955;28;96793;-67
2021/09/05 11:23:19;;;;;;;;;3.00;2.75;;;;;31.25;19.87;99632.53;6139521;28;96445;-65
2021/09/05 11:26:25;;;;;;;;;3.00;3.00;;;;;31.76;19.96;99636.84;6139803;28;97377;-65
2021/09/05 11:29:29;;;;;;;;;2.00;2.00;;;;;31.28;19.83;99629.03;6140817;28;97446;-66
2021/09/05 11:32:34;;;;;;;;;1.20;1.20;;;;;31.58;20.25;99627.81;6122394;28;97481;-63
2021/09/05 11:35:41;;;;;;;;;2.00;2.00;;;;;31.87;19.50;99621.28;6140778;28;97443;-66
2021/09/05 11:38:46;;;;;;;;;2.00;2.00;;;;;31.88;20.21;99625.69;6122579;28;96623;-67
2021/09/05 11:41:52;;;;;;;;;3.00;2.00;;;;;32.09;19.64;99620.03;6140370;28;96803;-67
2021/09/05 11:45:01;;;;;;;;;3.00;3.00;;;;;32.37;19.42;99618.22;6140119;28;96994;-67
2021/09/05 11:48:09;;;;;;;;;3.00;3.00;;;;;32.62;18.32;99616.25;6139029;28;97410;-63
2021/09/05 11:51:12;;;;;;;;;2.00;2.00;;;;;32.90;19.24;99630.31;6121878;28;97276;-67
2021/09/05 11:54:17;;;;;;;;;4.00;3.40;;;;;32.95;18.50;99628.09;6121068;28;99916;-67
2021/09/05 11:57:21;;;;;;;;;2.00;2.00;;;;;32.65;17.63;99623.94;6139819;28;97960;-65
2021/09/05 12:00:30;;;;;;;;;2.00;1.00;;;;;32.13;18.87;99623.78;6140239;28;96467;-65
2021/09/05 12:03:37;;;;;;;;;2.00;2.00;;;;;31.75;20.00;99619.28;6140456;28;97463;-65
2021/09/05 12:06:42;;;;;;;;;2.00;2.00;;;;;31.72;19.41;99622.75;6139712;28;97439;-67
2021/09/05 12:09:45;;;;;;;;;3.00;2.00;;;;;31.72;19.12;99616.34;6139003;28;96562;-65
2021/09/05 12:13:05;;;;;;;;;2.00;2.00;;;;;31.66;19.04;99615.78;6120826;28;97885;-63
2021/09/05 12:16:20;;;;;;;;;3.00;3.00;;;;;31.61;19.61;99601.25;6139325;28;98008;-65
2021/09/05 12:19:28;;;;;;;;;2.00;2.00;;;;;31.73;19.36;99613.22;6139466;28;96893;-67
2021/09/05 12:22:42;;;;;;;;;2.00;1.00;;;;;31.87;19.23;99612.91;6139545;28;97451;-63
2021/09/05 12:25:47;;;;;;;;;3.00;2.00;;;;;31.31;19.69;99611.66;6139360;28;96630;-65
2021/09/05 12:28:58;;;;;;;;;2.00;2.00;;;;;31.11;20.96;99606.91;6136740;28;96411;-65
2021/09/05 12:32:03;;;;;;;;;2.60;2.00;;;;;31.28;20.24;99606.75;6120615;28;97514;-67
2021/09/05 12:35:10;;;;;;;;;1.00;1.00;;;;;31.52;19.75;99609.63;6137839;28;97386;-63
2021/09/05 12:38:22;;;;;;;;;3.00;3.00;;;;;31.56;19.92;99616.22;6105047;28;96727;-67
2021/09/05 12:41:27;;;;;;;;;1.00;1.00;;;;;31.30;19.31;99612.81;6120063;28;97753;-65
2021/09/05 12:44:40;;;;;;;;;2.00;1.00;;;;;30.43;19.56;99601.44;6129791;28;97928;-67
2021/09/05 12:47:45;;;;;;;;;2.00;2.00;;;;;30.01;20.74;99603.25;6137801;28;97287;-64
2021/09/05 12:51:02;;;;;;;;;2.00;2.00;;;;;29.92;21.53;99610.00;6137601;28;96496;-65
2021/09/05 12:54:06;;;;;;;;;2.00;2.00;;;;;30.07;21.34;99604.72;6138687;28;97511;-65
2021/09/05 12:57:11;;;;;;;;;1.00;1.00;;;;;30.19;20.58;99606.78;6138676;28;98097;-67
2021/09/05 13:00:16;;;;;;;;;1.20;1.20;;;;;29.75;20.93;99605.28;6138829;28;96481;-65
2021/09/05 13:03:20;;;;;;;;;0.50;0.50;;;;;29.68;22.56;99614.13;6138174;28;97496;-65
2021/09/05 13:06:26;;;;;;;;;3.00;1.00;;;;;29.49;22.10;99576.72;6139933;28;97369;-65
2021/09/05 13:09:31;;;;;;;;;2.00;2.00;;;;;29.79;21.52;99606.25;6137303;28;97485;-63
2021/09/05 13:12:37;;;;;;;;;1.33;1.33;;;;;29.92;21.40;99604.44;6122250;28;98265;-67
2021/09/05 13:15:41;;;;;;;;;2.00;2.00;;;;;29.71;21.12;99605.13;6135507;28;97170;-63
2021/09/05 13:18:45;;;;;;;;;1.40;1.40;;;;;29.41;20.48;99595.06;6164985;28;96834;-65
2021/09/05 13:21:51;;;;;;;;;1.00;1.00;;;;;29.56;21.28;99616.78;6161318;28;97517;-66
2021/09/05 13:24:56;;;;;;;;;2.00;2.00;;;;;29.41;21.66;99611.72;6162420;28;97514;-65
2021/09/05 13:28:01;;;;;;;;;1.00;1.00;;;;;29.47;22.24;99609.59;6125628;28;98973;-63
2021/09/05 13:31:05;;;;;;;;;2.00;2.00;;;;;29.11;21.51;99613.50;6155136;28;96881;-63
2021/09/05 13:34:09;;;;;;;;;2.20;2.00;;;;;29.09;22.03;99609.41;6163146;28;97392;-65
2021/09/05 13:37:19;;;;;;;;;2.00;2.00;;;;;29.12;21.50;99614.34;6163121;28;96747;-67
2021/09/05 13:40:23;;;;;;;;;1.25;1.25;;;;;28.91;22.25;99611.38;6162637;28;97308;-65
2021/09/05 13:43:27;;;;;;;;;3.00;3.00;;;;;28.92;21.99;99610.25;6159785;28;97508;-63
2021/09/05 13:46:30;;;;;;;;;2.00;2.00;;;;;28.88;22.12;99606.50;6164591;28;97670;-63
2021/09/05 13:49:34;;;;;;;;;1.40;1.00;;;;;28.72;21.92;99610.88;6166052;28;96693;-65
2021/09/05 14:05:06;;;;;;;;;1.00;1.00;;;;;28.24;22.49;99614.47;7593889;22;98430;-65
2021/09/05 14:08:11;;;;;;;;;2.00;1.60;;;;;27.75;23.03;99614.69;6187861;28;96675;-63
2021/09/05 14:11:17;;;;;;;;;1.00;1.00;;;;;27.62;23.43;99612.78;6168605;28;99505;-65
2021/09/05 14:14:24;;;;;;;;;3.00;2.00;;;;;27.74;23.50;99600.00;6169767;28;97118;-65
2021/09/05 14:17:28;;;;;;;;;1.00;1.00;;;;;27.96;24.11;99607.44;6190887;28;96635;-64
2021/09/05 14:20:35;;;;;;;;;3.00;2.00;;;;;27.90;22.75;99584.63;6172832;28;97577;-67
2021/09/05 14:23:38;;;;;;;;;0.00;0.00;;;;;27.93;22.67;99608.09;6181087;28;98418;-67
2021/09/05 14:26:42;;;;;;;;;2.20;2.20;;;;;27.49;22.61;99614.50;6167551;28;97486;-66
2021/09/05 14:29:51;;;;;;;;;1.00;1.00;;;;;27.39;23.73;99615.56;6168578;28;96655;-65
2021/09/05 14:33:05;;;;;;;;;3.00;2.00;;;;;27.17;23.83;99616.34;6148140;28;96529;-65
2021/09/05 14:50:11;;;;;;;;;2.00;2.00;;;;;26.95;23.73;99604.44;6138281;28;97184;-65
2021/09/05 14:56:45;;;;;;;;;3.25;3.25;;;;;26.54;24.37;99605.31;6071699;28;96582;-63
2021/09/05 14:59:53;;;;;;;;;3.00;2.00;;;;;26.68;25.46;99608.88;6134760;28;97429;-67
2021/09/05 15:03:02;;;;;;;;;1.00;1.00;;;;;26.66;23.99;99610.34;6138186;28;97057;-63
2021/09/05 15:06:24;;;;;;;;;2.60;2.00;;;;;26.70;24.77;99590.03;6131572;28;97888;-65
2021/09/05 15:12:52;;;;;;;;;3.00;3.00;;;;;26.62;24.56;99598.25;6133081;28;97720;-63
2021/09/05 15:15:56;;;;;;;;;2.00;2.00;;;;;26.43;24.97;99592.03;6137775;28;98244;-64
2021/09/05 15:19:02;;;;;;;;;1.20;1.00;;;;;26.41;25.81;99602.56;6137726;28;98248;-64